createdAt,value
2017-08-29T00:00:24.841Z,14.05
2017-08-29T00:02:51.360Z,12.70
2017-08-29T00:05:17.809Z,14.23
2017-08-29T00:07:44.260Z,12.90
2017-08-29T00:10:10.800Z,13.48
2017-08-29T00:12:37.248Z,15.13
2017-08-29T00:15:03.751Z,13.73
2017-08-29T00:17:30.246Z,14.40
2017-08-29T00:19:56.692Z,14.40
2017-08-29T00:22:23.184Z,15.05
2017-08-29T00:24:49.702Z,14.32
2017-08-29T00:27:16.165Z,14.63
2017-08-29T00:29:42.593Z,14.45
2017-08-29T00:32:09.166Z,13.77
2017-08-29T00:34:35.678Z,13.25
2017-08-29T00:37:02.180Z,14.82
2017-08-29T00:39:28.656Z,14.65
2017-08-29T00:41:55.177Z,13.80
2017-08-29T00:44:21.658Z,12.88
2017-08-29T00:46:48.182Z,14.00
2017-08-29T00:49:14.637Z,13.27
2017-08-29T00:51:41.111Z,14.60
2017-08-29T00:54:07.641Z,13.70
2017-08-29T00:56:34.200Z,14.68
2017-08-29T00:59:00.673Z,14.23
2017-08-29T01:01:27.177Z,15.43
2017-08-29T01:03:53.749Z,12.80
2017-08-29T01:06:20.238Z,13.45
2017-08-29T01:08:46.674Z,12.75
2017-08-29T01:11:13.270Z,12.25
2017-08-29T01:13:39.896Z,12.30
2017-08-29T01:16:06.373Z,13.60
2017-08-29T01:18:32.874Z,13.95
2017-08-29T01:20:59.397Z,15.70
2017-08-29T01:23:25.941Z,14.20
2017-08-29T01:25:52.434Z,13.52
2017-08-29T01:28:18.973Z,15.57
2017-08-29T01:30:45.489Z,13.48
2017-08-29T01:33:12.009Z,13.43
2017-08-29T01:35:38.585Z,14.73
2017-08-29T01:38:05.084Z,15.05
2017-08-29T01:40:31.621Z,15.70
2017-08-29T01:42:58.149Z,14.70
2017-08-29T01:45:24.675Z,14.55
2017-08-29T01:47:51.193Z,14.60
2017-08-29T01:50:17.693Z,14.32
2017-08-29T01:52:44.184Z,13.20
2017-08-29T01:55:10.705Z,15.30
2017-08-29T01:57:37.295Z,15.13
2017-08-29T02:00:03.801Z,14.80
2017-08-29T02:02:30.359Z,15.45
2017-08-29T02:04:56.876Z,14.13
2017-08-29T02:07:23.401Z,15.57
2017-08-29T02:09:49.953Z,15.35
2017-08-29T02:12:16.441Z,16.50
2017-08-29T02:14:42.948Z,15.80
2017-08-29T02:17:09.520Z,16.80
2017-08-29T02:19:36.014Z,16.75
2017-08-29T02:22:02.479Z,15.90
2017-08-29T02:24:28.929Z,15.13
2017-08-29T02:26:55.476Z,16.85
2017-08-29T02:29:21.988Z,16.42
2017-08-29T02:31:48.424Z,17.05
2017-08-29T02:34:15.614Z,15.65
2017-08-29T02:36:42.105Z,17.52
2017-08-29T02:39:08.548Z,15.27
2017-08-29T02:41:35.049Z,16.02
2017-08-29T02:44:01.510Z,16.62
2017-08-29T02:46:27.959Z,15.18
2017-08-29T02:48:54.414Z,15.43
2017-08-29T02:51:20.973Z,15.65
2017-08-29T02:53:47.408Z,15.68
2017-08-29T02:56:13.929Z,15.10
2017-08-29T02:58:40.373Z,13.88
2017-08-29T03:01:06.809Z,16.17
2017-08-29T03:03:33.279Z,15.25
2017-08-29T03:05:59.713Z,14.00
2017-08-29T03:08:26.151Z,15.45
2017-08-29T03:10:52.634Z,16.23
2017-08-29T03:13:19.128Z,16.30
2017-08-29T03:15:45.613Z,17.00
2017-08-29T03:18:12.039Z,16.25
2017-08-29T03:20:38.477Z,16.67
2017-08-29T03:23:04.945Z,15.88
2017-08-29T03:25:31.401Z,14.35
2017-08-29T03:27:57.917Z,16.87
2017-08-29T03:30:24.365Z,15.10
2017-08-29T03:32:50.893Z,16.27
2017-08-29T03:35:17.666Z,17.92
2017-08-29T03:37:44.096Z,15.88
2017-08-29T03:40:10.607Z,15.35
2017-08-29T03:42:37.053Z,16.67
2017-08-29T03:45:03.546Z,16.05
2017-08-29T03:47:30.025Z,18.17
2017-08-29T03:49:56.453Z,16.98
2017-08-29T03:52:22.916Z,18.30
2017-08-29T03:54:49.500Z,18.25
2017-08-29T03:57:15.993Z,16.55
2017-08-29T03:59:42.437Z,14.90
2017-08-29T04:02:08.889Z,15.70
2017-08-29T04:04:35.344Z,15.77
2017-08-29T04:07:01.801Z,16.10
2017-08-29T04:09:28.233Z,15.95
2017-08-29T04:11:54.741Z,16.30
2017-08-29T04:14:21.211Z,19.37
2017-08-29T04:16:47.662Z,17.27
2017-08-29T04:19:14.131Z,19.00
2017-08-29T04:21:40.613Z,20.67
2017-08-29T04:24:07.098Z,18.67
2017-08-29T04:26:33.601Z,21.35
2017-08-29T04:29:00.082Z,18.05
2017-08-29T04:31:26.529Z,20.33
2017-08-29T04:33:52.940Z,20.73
2017-08-29T04:36:19.466Z,17.98
2017-08-29T04:38:45.961Z,18.27
2017-08-29T04:41:12.445Z,17.17
2017-08-29T04:43:38.993Z,18.50
2017-08-29T04:46:05.437Z,19.17
2017-08-29T04:48:31.863Z,20.55
2017-08-29T04:50:58.314Z,20.85
2017-08-29T04:53:24.740Z,20.88
2017-08-29T04:55:51.205Z,21.87
2017-08-29T04:58:17.713Z,19.98
2017-08-29T05:00:44.196Z,21.33
2017-08-29T05:03:10.738Z,18.87
2017-08-29T05:05:37.289Z,19.75
2017-08-29T05:08:03.758Z,17.00
2017-08-29T05:10:30.233Z,17.48
2017-08-29T05:12:56.724Z,17.83
2017-08-29T05:15:23.178Z,15.98
2017-08-29T05:17:49.684Z,16.83
2017-08-29T05:20:16.208Z,16.60
2017-08-29T05:22:42.626Z,15.80
2017-08-29T05:25:09.055Z,17.08
2017-08-29T05:27:35.673Z,15.20
2017-08-29T05:30:02.120Z,16.20
2017-08-29T05:32:28.569Z,15.25
2017-08-29T05:34:55.092Z,16.35
2017-08-29T05:37:21.529Z,15.00
2017-08-29T05:39:47.988Z,15.15
2017-08-29T05:42:14.459Z,15.05
2017-08-29T05:44:40.878Z,16.45
2017-08-29T05:47:07.374Z,16.90
2017-08-29T05:49:34.106Z,16.95
2017-08-29T05:52:00.529Z,18.55
2017-08-29T05:54:26.983Z,19.12
2017-08-29T05:56:53.491Z,18.12
2017-08-29T05:59:19.945Z,17.98
2017-08-29T06:01:46.405Z,19.12
2017-08-29T06:04:12.925Z,19.50
2017-08-29T06:06:39.444Z,20.90
2017-08-29T06:09:05.938Z,21.95
2017-08-29T06:11:32.477Z,18.83
2017-08-29T06:13:58.986Z,20.23
2017-08-29T06:16:25.465Z,19.95
2017-08-29T06:18:51.971Z,20.37
2017-08-29T06:21:18.416Z,17.30
2017-08-29T06:23:44.899Z,17.90
2017-08-29T06:26:11.341Z,18.75
2017-08-29T06:28:37.837Z,16.90
2017-08-29T06:31:04.321Z,17.08
2017-08-29T06:33:30.760Z,17.12
2017-08-29T06:35:57.252Z,17.25
2017-08-29T06:38:23.715Z,16.85
2017-08-29T06:40:50.175Z,17.20
2017-08-29T06:43:16.617Z,14.77
2017-08-29T06:45:43.091Z,12.23
2017-08-29T06:48:09.556Z,11.70
2017-08-29T06:50:36.044Z,13.40
2017-08-29T06:53:05.375Z,12.15
2017-08-29T06:55:31.813Z,11.93
2017-08-29T06:57:58.375Z,11.23
2017-08-29T07:00:24.819Z,11.52
2017-08-29T07:02:51.312Z,11.30
2017-08-29T07:05:17.777Z,11.82
2017-08-29T07:07:44.225Z,12.43
2017-08-29T07:10:10.713Z,12.80
2017-08-29T07:12:37.225Z,12.65
2017-08-29T07:15:03.739Z,12.95
2017-08-29T07:17:30.283Z,12.50
2017-08-29T07:19:56.758Z,12.00
2017-08-29T07:22:23.238Z,12.27
2017-08-29T07:24:49.781Z,12.63
2017-08-29T07:27:16.400Z,11.30
2017-08-29T07:29:42.897Z,11.15
2017-08-29T07:32:09.417Z,11.50
2017-08-29T07:34:35.915Z,11.60
2017-08-29T07:37:02.402Z,10.45
2017-08-29T07:39:28.926Z,11.85
2017-08-29T07:41:55.473Z,11.15
2017-08-29T07:44:21.960Z,12.07
2017-08-29T07:46:48.465Z,12.05
2017-08-29T07:49:14.985Z,11.40
2017-08-29T07:51:41.493Z,10.40
2017-08-29T07:54:08.010Z,11.35
2017-08-29T07:56:34.481Z,10.40
2017-08-29T07:59:01.002Z,9.50
2017-08-29T08:01:27.447Z,10.00
2017-08-29T08:03:53.885Z,10.27
2017-08-29T08:06:20.433Z,10.57
2017-08-29T08:08:46.891Z,10.82
2017-08-29T08:11:13.366Z,9.68
2017-08-29T08:13:39.873Z,9.35
2017-08-29T08:16:06.391Z,9.77
2017-08-29T08:18:32.886Z,10.07
2017-08-29T08:20:59.422Z,10.45
2017-08-29T08:23:25.900Z,9.40
2017-08-29T08:25:52.359Z,9.20
2017-08-29T08:28:18.805Z,9.82
2017-08-29T08:30:45.431Z,9.25
2017-08-29T08:33:11.930Z,8.90
2017-08-29T08:35:38.422Z,9.77
2017-08-29T08:38:04.931Z,8.60
2017-08-29T08:40:31.477Z,9.00
2017-08-29T08:42:57.922Z,9.38
2017-08-29T08:45:24.410Z,9.25
2017-08-29T08:47:50.923Z,8.73
2017-08-29T08:50:17.531Z,9.13
2017-08-29T08:52:44.069Z,8.38
2017-08-29T08:55:10.571Z,9.13
2017-08-29T08:57:37.128Z,8.48
2017-08-29T09:00:04.048Z,8.40
2017-08-29T09:02:30.555Z,7.95
2017-08-29T09:04:57.010Z,8.50
2017-08-29T09:07:23.562Z,8.45
2017-08-29T09:09:50.993Z,7.60
2017-08-29T09:12:18.995Z,8.65
2017-08-29T09:14:45.735Z,8.80
2017-08-29T09:17:12.227Z,8.60
2017-08-29T09:19:38.713Z,7.75
2017-08-29T09:22:05.538Z,8.55
2017-08-29T09:24:32.020Z,8.60
2017-08-29T09:26:58.469Z,9.32
2017-08-29T09:29:28.605Z,7.70
2017-08-29T09:31:55.698Z,8.90
2017-08-29T09:34:22.173Z,7.72
2017-08-29T09:36:48.667Z,8.07
2017-08-29T09:39:15.206Z,9.27
2017-08-29T09:41:41.674Z,8.30
2017-08-29T09:44:08.173Z,8.85
2017-08-29T09:46:34.681Z,8.38
2017-08-29T09:49:01.147Z,8.43
2017-08-29T09:51:27.709Z,7.93
2017-08-29T09:53:54.173Z,9.05
2017-08-29T09:56:20.698Z,9.70
2017-08-29T09:58:47.205Z,7.95
2017-08-29T10:01:13.706Z,8.80
2017-08-29T10:03:40.197Z,8.75
2017-08-29T10:06:06.654Z,11.10
2017-08-29T10:08:33.151Z,8.65
2017-08-29T10:10:59.653Z,8.80
2017-08-29T10:13:26.125Z,7.72
2017-08-29T10:15:52.574Z,9.60
2017-08-29T10:18:19.044Z,8.25
2017-08-29T10:20:45.564Z,8.63
2017-08-29T10:23:15.823Z,10.20
2017-08-29T10:25:46.753Z,9.00
2017-08-29T10:28:18.333Z,9.65
2017-08-29T10:30:50.939Z,9.50
2017-08-29T10:33:22.703Z,8.50
2017-08-29T10:35:49.877Z,8.35
2017-08-29T10:38:16.328Z,7.70
2017-08-29T10:40:42.797Z,8.93
2017-08-29T10:43:09.338Z,9.95
2017-08-29T10:45:35.834Z,9.05
2017-08-29T10:48:02.327Z,10.45
2017-08-29T10:50:28.983Z,8.90
2017-08-29T10:52:55.481Z,8.25
2017-08-29T10:55:22.033Z,9.30
2017-08-29T10:57:48.581Z,8.60
2017-08-29T11:00:15.093Z,8.13
2017-08-29T11:02:41.627Z,8.05
2017-08-29T11:05:08.073Z,7.90
2017-08-29T11:07:34.601Z,8.13
2017-08-29T11:10:01.057Z,8.00
2017-08-29T11:12:27.602Z,9.05
2017-08-29T11:14:54.068Z,8.30
2017-08-29T11:17:20.554Z,8.20
2017-08-29T11:19:47.097Z,8.65
2017-08-29T11:22:13.654Z,8.60
2017-08-29T11:24:40.162Z,8.70
2017-08-29T11:27:06.698Z,8.48
2017-08-29T11:29:33.223Z,7.80
2017-08-29T11:31:59.782Z,8.70
2017-08-29T11:34:26.339Z,8.30
2017-08-29T11:36:52.896Z,8.20
2017-08-29T11:39:19.430Z,8.43
2017-08-29T11:41:45.908Z,8.50
2017-08-29T11:44:12.438Z,8.73
2017-08-29T11:46:38.952Z,7.70
2017-08-29T11:49:05.622Z,8.65
2017-08-29T11:51:32.117Z,8.18
2017-08-29T11:53:59.381Z,8.20
2017-08-29T11:56:25.997Z,8.55
2017-08-29T11:58:52.527Z,8.25
2017-08-29T12:01:19.054Z,8.07
2017-08-29T12:03:45.600Z,8.30
2017-08-29T12:06:12.073Z,8.40
2017-08-29T12:08:38.579Z,7.93
2017-08-29T12:11:05.111Z,7.93
2017-08-29T12:13:31.743Z,8.65
2017-08-29T12:15:58.202Z,8.07
2017-08-29T12:18:24.642Z,8.35
2017-08-29T12:20:51.205Z,8.50
2017-08-29T12:23:17.729Z,7.65
2017-08-29T12:25:44.209Z,8.13
2017-08-29T12:28:10.701Z,8.25
2017-08-29T12:30:37.273Z,7.70
2017-08-29T12:33:03.745Z,8.50
2017-08-29T12:35:30.186Z,7.93
2017-08-29T12:37:56.674Z,8.15
2017-08-29T12:40:23.145Z,8.50
2017-08-29T12:42:49.706Z,7.10
2017-08-29T12:45:16.185Z,7.95
2017-08-29T12:47:42.645Z,7.72
2017-08-29T12:50:09.157Z,7.75
2017-08-29T12:52:35.612Z,7.68
2017-08-29T12:55:03.974Z,7.72
2017-08-29T12:57:31.314Z,7.97
2017-08-29T12:59:57.809Z,8.27
2017-08-29T13:02:24.277Z,7.68
2017-08-29T13:04:51.513Z,7.85
2017-08-29T13:07:17.996Z,7.85
2017-08-29T13:09:44.434Z,7.55
2017-08-29T13:12:10.894Z,7.50
2017-08-29T13:14:37.491Z,7.50
2017-08-29T13:17:03.954Z,7.53
2017-08-29T13:19:30.418Z,6.90
2017-08-29T13:21:56.975Z,7.40
2017-08-29T13:24:23.579Z,8.10
2017-08-29T13:26:50.050Z,8.00
2017-08-29T13:29:16.488Z,7.35
2017-08-29T13:31:42.996Z,7.62
2017-08-29T13:34:09.462Z,7.47
2017-08-29T13:36:35.939Z,6.70
2017-08-29T13:39:02.494Z,7.35
2017-08-29T13:41:29.089Z,7.85
2017-08-29T13:43:55.784Z,6.75
2017-08-29T13:46:22.249Z,7.82
2017-08-29T13:48:48.713Z,7.80
2017-08-29T13:51:15.206Z,7.43
2017-08-29T13:53:41.686Z,7.90
2017-08-29T13:56:08.130Z,7.82
2017-08-29T13:58:34.595Z,7.15
2017-08-29T14:01:01.028Z,7.30
2017-08-29T14:03:27.513Z,7.22
2017-08-29T14:05:53.946Z,7.25
2017-08-29T14:08:20.446Z,7.45
2017-08-29T14:10:46.945Z,7.47
2017-08-29T14:13:13.441Z,7.60
2017-08-29T14:15:39.938Z,6.80
2017-08-29T14:18:06.386Z,7.90
2017-08-29T14:20:32.878Z,6.95
2017-08-29T14:23:00.249Z,7.22
2017-08-29T14:25:26.720Z,6.80
2017-08-29T14:27:53.204Z,7.72
2017-08-29T14:30:19.739Z,7.50
2017-08-29T14:32:46.210Z,7.75
2017-08-29T14:35:12.701Z,7.15
2017-08-29T14:37:39.876Z,7.35
2017-08-29T14:40:06.342Z,8.50
2017-08-29T14:42:32.848Z,8.27
2017-08-29T14:44:59.338Z,8.48
2017-08-29T14:47:38.189Z,7.60
2017-08-29T14:50:04.636Z,7.65
2017-08-29T14:52:31.172Z,7.62
2017-08-29T14:54:57.688Z,7.25
2017-08-29T14:57:24.230Z,7.57
2017-08-29T14:59:50.673Z,7.53
2017-08-29T15:02:17.294Z,7.20
2017-08-29T15:04:43.734Z,6.82
2017-08-29T15:07:10.167Z,7.68
2017-08-29T15:09:36.644Z,7.40
2017-08-29T15:12:03.101Z,7.30
2017-08-29T15:14:29.607Z,7.00
2017-08-29T15:16:56.173Z,7.00
2017-08-29T15:19:22.603Z,7.47
2017-08-29T15:21:49.886Z,7.90
2017-08-29T15:24:16.313Z,7.20
2017-08-29T15:26:42.818Z,6.72
2017-08-29T15:29:09.253Z,7.18
2017-08-29T15:31:35.782Z,6.95
2017-08-29T15:34:02.258Z,8.02
2017-08-29T15:36:28.714Z,7.30
2017-08-29T15:38:55.309Z,7.55
2017-08-29T15:41:21.763Z,7.10
2017-08-29T15:43:48.302Z,7.40
2017-08-29T15:46:14.776Z,7.00
2017-08-29T15:48:41.307Z,7.05
2017-08-29T15:51:07.790Z,7.30
2017-08-29T15:53:34.234Z,7.65
2017-08-29T15:56:00.735Z,6.53
2017-08-29T15:58:27.194Z,7.30
2017-08-29T16:00:53.703Z,7.30
2017-08-29T16:03:20.205Z,7.45
2017-08-29T16:05:46.730Z,7.50
2017-08-29T16:08:13.219Z,7.00
2017-08-29T16:10:39.761Z,6.80
2017-08-29T16:13:06.230Z,7.45
2017-08-29T16:15:32.681Z,8.52
2017-08-29T16:17:59.200Z,6.80
2017-08-29T16:20:25.650Z,7.65
2017-08-29T16:22:52.155Z,7.37
2017-08-29T16:25:18.616Z,7.30
2017-08-29T16:27:45.101Z,7.15
2017-08-29T16:30:11.661Z,7.32
2017-08-29T16:32:38.128Z,7.50
2017-08-29T16:35:04.614Z,6.93
2017-08-29T16:37:31.258Z,7.40
2017-08-29T16:39:57.706Z,7.37
2017-08-29T16:42:24.161Z,7.75
2017-08-29T16:44:50.669Z,7.82
2017-08-29T16:47:17.159Z,7.60
2017-08-29T16:49:43.649Z,7.22
2017-08-29T16:52:10.123Z,7.87
2017-08-29T16:54:36.644Z,8.07
2017-08-29T16:57:03.090Z,7.70
2017-08-29T16:59:29.589Z,7.25
2017-08-29T17:01:56.068Z,6.97
2017-08-29T17:04:22.561Z,6.85
2017-08-29T17:06:49.173Z,7.70
2017-08-29T17:09:15.726Z,7.62
2017-08-29T17:11:42.206Z,6.95
2017-08-29T17:14:08.797Z,7.57
2017-08-29T17:16:35.301Z,7.90
2017-08-29T17:19:01.862Z,7.50
2017-08-29T17:21:28.317Z,7.53
2017-08-29T17:23:54.781Z,7.85
2017-08-29T17:26:21.360Z,7.70
2017-08-29T17:28:47.898Z,7.70
2017-08-29T17:31:14.365Z,8.00
2017-08-29T17:33:40.834Z,7.15
2017-08-29T17:36:07.345Z,7.10
2017-08-29T17:38:33.826Z,7.47
2017-08-29T17:41:00.284Z,6.55
2017-08-29T17:43:26.777Z,7.57
2017-08-29T17:45:53.914Z,8.10
2017-08-29T17:48:20.502Z,7.90
2017-08-29T17:50:46.945Z,8.82
2017-08-29T17:53:14.270Z,7.65
2017-08-29T17:55:40.793Z,7.22
2017-08-29T17:58:07.248Z,8.07
2017-08-29T18:00:33.710Z,7.93
2017-08-29T18:03:00.237Z,8.02
2017-08-29T18:05:26.669Z,7.90
2017-08-29T18:07:53.154Z,7.05
2017-08-29T18:10:19.671Z,7.55
2017-08-29T18:12:46.170Z,8.20
2017-08-29T18:15:12.651Z,9.70
2017-08-29T18:17:39.109Z,9.68
2017-08-29T18:20:05.731Z,8.43
2017-08-29T18:22:32.226Z,8.20
2017-08-29T18:24:58.836Z,8.98
2017-08-29T18:27:25.361Z,8.48
2017-08-29T18:29:51.836Z,7.22
2017-08-29T18:32:18.354Z,8.07
2017-08-29T18:34:44.835Z,8.20
2017-08-29T18:37:11.387Z,8.35
2017-08-29T18:39:37.870Z,7.60
2017-08-29T18:42:04.359Z,8.25
2017-08-29T18:44:30.835Z,8.27
2017-08-29T18:46:57.402Z,8.07
2017-08-29T18:49:23.914Z,7.30
2017-08-29T18:51:50.367Z,8.23
2017-08-29T18:54:16.886Z,8.23
2017-08-29T18:56:43.418Z,8.15
2017-08-29T18:59:09.996Z,8.05
2017-08-29T19:01:36.480Z,8.07
2017-08-29T19:04:02.982Z,8.32
2017-08-29T19:06:29.454Z,8.48
2017-08-29T19:08:55.974Z,8.32
2017-08-29T19:11:22.438Z,8.93
2017-08-29T19:13:48.905Z,8.77
2017-08-29T19:16:15.503Z,7.87
2017-08-29T19:18:42.029Z,8.27
2017-08-29T19:21:09.242Z,8.75
2017-08-29T19:23:35.681Z,8.77
2017-08-29T19:26:02.226Z,8.98
2017-08-29T19:28:28.720Z,8.93
2017-08-29T19:30:55.185Z,9.05
2017-08-29T19:33:21.686Z,8.38
2017-08-29T19:35:48.208Z,9.02
2017-08-29T19:38:14.669Z,8.80
2017-08-29T19:40:41.171Z,9.15
2017-08-29T19:43:07.742Z,8.55
2017-08-29T19:45:34.238Z,8.75
2017-08-29T19:48:00.813Z,9.15
2017-08-29T19:50:27.418Z,8.25
2017-08-29T19:52:53.906Z,8.90
2017-08-29T19:55:20.421Z,8.88
2017-08-29T19:57:46.905Z,9.75
2017-08-29T20:00:13.431Z,9.68
2017-08-29T20:02:39.938Z,9.30
2017-08-29T20:05:06.390Z,9.45
2017-08-29T20:07:32.905Z,9.73
2017-08-29T20:09:59.386Z,8.82
2017-08-29T20:12:25.834Z,9.02
2017-08-29T20:14:52.388Z,9.85
2017-08-29T20:17:18.878Z,8.90
2017-08-29T20:19:45.348Z,9.93
2017-08-29T20:22:11.835Z,9.93
2017-08-29T20:24:38.311Z,9.25
2017-08-29T20:27:04.848Z,9.32
2017-08-29T20:29:31.412Z,9.40
2017-08-29T20:31:57.871Z,9.40
2017-08-29T20:34:24.349Z,9.45
2017-08-29T20:36:50.873Z,9.50
2017-08-29T20:39:17.390Z,9.25
2017-08-29T20:41:43.823Z,9.20
2017-08-29T20:44:10.351Z,9.45
2017-08-29T20:46:36.733Z,9.38
2017-08-29T20:49:03.123Z,9.18
2017-08-29T20:51:29.605Z,9.27
2017-08-29T20:53:56.017Z,9.45
2017-08-29T20:56:22.454Z,10.45
2017-08-29T20:58:48.941Z,9.20
2017-08-29T21:01:15.416Z,9.77
2017-08-29T21:03:41.821Z,9.60
2017-08-29T21:06:08.266Z,9.55
2017-08-29T21:08:34.730Z,9.80
2017-08-29T21:11:01.112Z,9.75
2017-08-29T21:13:27.609Z,9.57
2017-08-29T21:15:54.002Z,9.60
2017-08-29T21:18:20.445Z,9.82
2017-08-29T21:20:46.850Z,10.40
2017-08-29T21:23:13.266Z,10.07
2017-08-29T21:25:39.696Z,9.90
2017-08-29T21:28:06.124Z,9.63
2017-08-29T21:30:32.513Z,9.65
2017-08-29T21:32:58.938Z,9.10
2017-08-29T21:35:25.401Z,9.57
2017-08-29T21:37:51.779Z,8.95
2017-08-29T21:40:18.213Z,9.40
2017-08-29T21:42:44.621Z,9.63
2017-08-29T21:45:11.129Z,10.02
2017-08-29T21:47:37.584Z,10.50
2017-08-29T21:50:04.062Z,10.82
2017-08-29T21:52:30.467Z,10.10
2017-08-29T21:54:56.910Z,10.68
2017-08-29T21:57:23.364Z,10.48
2017-08-29T21:59:49.821Z,10.23
2017-08-29T22:02:16.282Z,9.80
2017-08-29T22:04:42.738Z,10.38
2017-08-29T22:07:09.286Z,9.80
2017-08-29T22:09:35.720Z,10.65
2017-08-29T22:12:02.162Z,9.68
2017-08-29T22:14:28.633Z,10.57
2017-08-29T22:16:55.329Z,10.15
2017-08-29T22:19:21.805Z,11.12
2017-08-29T22:21:48.245Z,9.85
2017-08-29T22:24:14.732Z,10.18
2017-08-29T22:26:41.208Z,10.52
2017-08-29T22:29:07.696Z,10.82
2017-08-29T22:31:34.170Z,10.85
2017-08-29T22:34:00.697Z,10.90
2017-08-29T22:36:27.175Z,9.90
2017-08-29T22:38:53.630Z,10.00
2017-08-29T22:41:20.136Z,10.02
2017-08-29T22:43:46.597Z,9.80
2017-08-29T22:46:13.085Z,10.00
2017-08-29T22:48:39.558Z,10.23
2017-08-29T22:51:06.013Z,10.98
2017-08-29T22:53:32.519Z,9.55
2017-08-29T22:55:59.030Z,10.18
2017-08-29T22:58:25.529Z,10.30
2017-08-29T23:00:52.086Z,9.80
2017-08-29T23:03:18.519Z,10.00
2017-08-29T23:05:45.021Z,10.73
2017-08-29T23:08:11.485Z,9.75
2017-08-29T23:10:37.963Z,9.98
2017-08-29T23:13:04.521Z,9.98
2017-08-29T23:15:30.965Z,10.10
2017-08-29T23:17:57.477Z,9.90
2017-08-29T23:20:23.942Z,9.82
2017-08-29T23:22:50.377Z,10.73
2017-08-29T23:25:16.952Z,9.88
2017-08-29T23:27:43.400Z,9.80
2017-08-29T23:30:09.940Z,9.32
2017-08-29T23:32:36.388Z,9.80
2017-08-29T23:35:02.825Z,10.68
2017-08-29T23:37:29.381Z,9.15
2017-08-29T23:39:55.897Z,9.68
2017-08-29T23:42:22.320Z,9.52
2017-08-29T23:44:48.782Z,9.82
2017-08-29T23:47:15.234Z,10.88
2017-08-29T23:49:41.649Z,10.05
2017-08-29T23:52:08.147Z,11.38
2017-08-29T23:54:34.614Z,11.23
2017-08-29T23:57:01.084Z,11.52
2017-08-29T23:59:27.580Z,11.75
